KTAZ

Taylorville Municipal Airport

Taylorville, Illinois, USA
METAR KTAZ 241435Z AUTO 20003KT 10SM CLR 24/20 A2996 RMK AO2 T02370197
Observed Flight Rules
Jun-24 @ 14:35 UTC (31 minutes ago) Visual Flight Rules
Wind Visibility Clouds
200° at 3 knots 10 miles
  • Clear skies
Temperatures Readings
Current 24°C / 75°F
Dewpoint 20°C / 68°F
Humidity 78%
Altimeter 29.96" Hg
Pressure 1015 hPa
Elevation 190
METAR KTAZ 241435Z AUTO 20003KT 10SM CLR 24/20 A2996 RMK AO2 T02370197
Observed Flight Rules
Jun-24 @ 14:35 UTC
(31 minutes ago)
VFR
Wind Visibility
200° at 3 knots 10 miles
Clouds
  • Clear skies
Temperature Dewpoint
24°C / 75°F 20°C / 68°F
Humidity Altimeter Pressure
78% 29.96" Hg 1015 hPa